Canaan, IN (47224)

4:44 AM EST on February 12, 2016 (GMT -0500)
APRSWXNET | | Change Station
CLOSE
Current Station
Personal Weather Station
Location: Cross Plains, IN
Elevation: 639 ft
Nearby Weather Stations
Active Advisory: Special Statement

Elev 639 ft 38.97 °N, 85.15 °W | Updated 36 minutes ago

Overcast
Overcast
19 °F
Feels Like 19 °F
N
0
Wind Variable Wind from ENE
Gusts 1.0 mph

Today
High -- | Low -- °F
--% Chance of Precip.
Yesterday
High -- | Low -- °F
Precip. -- in
Pressure 30.24 in
Visibility 10.0 miles
Clouds Few 8000 ft
Mostly Cloudy 10000 ft
Overcast 15000 ft
Windchill 19 °F
Dew Point 14 °F
Humidity 79%
Rainfall in
Snow Depth Not available.
7:36 AM 6:14 PM
Waxing Crescent, 19% visible
METAR KCVG 120852Z 12003KT 10SM FEW080 BKN100 OVC150 M07/M13 A3020 RMK AO2 SLP238 T10671133 56016
Pressure 30.24 in
Visibility 10.0 miles
Clouds Few 8000 ft
Mostly Cloudy 10000 ft
Overcast 15000 ft
Windchill 19 °F
Dew Point 14 °F
Humidity 79%
Rainfall in
Snow Depth Not available.
7:36 AM 6:14 PM
Waxing Crescent, 19% visible
METAR KCVG 120852Z 12003KT 10SM FEW080 BKN100 OVC150 M07/M13 A3020 RMK AO2 SLP238 T10671133 56016

10-Day Weather Forecast

Almanac

Astronomy

Feb. 12, 2016 Rise Set
Actual Time
Civil Twilight
Nautical Twilight
Astronomical Twilight
Moon
Length of Visible Light
Length of Day
Tomorrow will be .
, % of the Moon is Illuminated

Today's Extremes

State Highs State Lows

Community

WunderPhotos

Upload Photos

1,892,286 photos uploaded!

WunderBlog® & News

Nearby

Air Quality

  Air Quality AQ Index Pollutant
Not available.

Snow Depth

Station Depth Elevation

Earthquake Activity

City Distance Mag. Time & Date
Minimum magnitude displayed is 2.5.

Coastal Water Temperatures

Place Temperature

Stations

Nearby Weather Stations

Station Location Temp. Windchill Dew Point Humidity Wind Precip. Elev Updated Type
                   

Watches & Warnings

Special Statement
Issued: 3:03 AM CST Feb. 12, 2016 – National Weather Service

... Light snow around the Friday morning commute...

Light snow will overspread the region around dawn this morning.
With temperatures in the lower to middle 20s... all snow will stick
to untreated surfaces. Although snow accumulations are expected to
be a half of an inch or less... a few slick spots are possible
during the morning commute. Motorists should use caution... slow
down... and allow extra time to travel to work this morning.


Mj